Home   Weather   China   Dalian   Past weeks
Flag for China

Past Weather in Dalian, Liaoning, China — Yesterday and Last 2 Weeks

Currently: 59 °F. Partly cloudy. (Weather station: Dalian Airport, China). See more current weather

Past Weather in Dalian — Graph

°F

Dalian Temperature Yesterday

Maximum temperature yesterday: 68 °F (at 10:30 am)
Minimum temperature yesterday: 45 °F (at 4:00 am)
Average temperature yesterday: 58 °F

High & Low Weather Summary for the Past Weeks

 TemperatureHumidityPressure
High73 °F (May 6, 1:00 pm)100% (Apr 27, 5:30 am)30.18 "Hg (Apr 27, 5:30 am)
Low45 °F (Apr 30, 9:30 pm)15% (Apr 28, 9:30 am)29.42 "Hg (May 8, 5:00 am)
Average58 °F53%29.81 "Hg
* Reported Apr 27 4:00 am — May 12 4:00 am, Dalian. Weather by CustomWeather, © 2021

Note: Actual official high and low records may vary slightly from our data, if they occured in-between our weather recording intervals... More about our weather records

Dalian Weather History for the Previous 24 Hours

Scroll right to see more
 ConditionsComfort  
Time TempWeatherWind HumidityBarometerVisibility
4:00 am
Wed, May 12
59 °FPartly cloudy.3 mph88%29.83 "HgN/A
3:30 am59 °FPartly cloudy.6 mph82%29.83 "HgN/A
2:30 am59 °FPartly cloudy.6 mph82%29.86 "HgN/A
2:00 am57 °FPartly cloudy.3 mph88%29.86 "HgN/A
1:30 am57 °FPartly cloudy.8 mph82%29.86 "HgN/A
1:00 am57 °FPartly cloudy.3 mph82%29.86 "HgN/A
12:30 am57 °FPartly cloudy.6 mph82%29.86 "HgN/A
12:00 am57 °FPartly cloudy.3 mph82%29.86 "HgN/A
11:30 pm
Tue, May 11
57 °FPassing clouds.6 mph77%29.86 "HgN/A
11:00 pm57 °FPassing clouds.8 mph77%29.86 "HgN/A
10:30 pm57 °FPassing clouds.6 mph72%29.86 "HgN/A
10:00 pm57 °FPassing clouds.6 mph67%29.86 "HgN/A
9:30 pm59 °FPassing clouds.6 mph59%29.86 "HgN/A
9:00 pm59 °FClear.10 mph55%29.83 "Hg10 mi
8:30 pm59 °FClear.13 mph51%29.83 "Hg10 mi
8:00 pm57 °FClear.8 mph59%29.86 "Hg10 mi
7:30 pm57 °FClear.8 mph63%29.83 "Hg10 mi
7:00 pm57 °FClear.8 mph63%29.83 "Hg10 mi
6:30 pm61 °FSunny.8 mph55%29.83 "Hg10 mi
5:30 pm63 °FSunny.8 mph52%29.86 "Hg10 mi
5:00 pm64 °FSunny.8 mph49%29.86 "Hg10 mi
4:30 pm64 °FSunny.13 mph46%29.86 "Hg10 mi
4:00 pm66 °FSunny.15 mph40%29.86 "Hg10 mi
3:30 pm68 °FSunny.13 mph38%29.86 "Hg10 mi
2:30 pm68 °FSunny.13 mph46%29.89 "Hg10 mi
2:00 pm68 °FSunny.10 mph40%29.89 "Hg10 mi
1:30 pm68 °FPassing clouds.10 mph43%29.92 "HgN/A
1:00 pm66 °FPassing clouds.10 mph46%29.92 "HgN/A
12:30 pm66 °FSunny.10 mph43%29.92 "Hg10 mi
12:00 pm68 °FSunny.13 mph43%29.95 "Hg10 mi
11:30 am68 °FSunny.13 mph38%29.95 "Hg10 mi
11:00 am68 °FSunny.13 mph35%29.95 "Hg10 mi
10:30 am68 °FSunny.13 mph38%29.95 "Hg10 mi
9:00 am66 °FSunny.8 mph40%29.95 "Hg10 mi
8:30 am64 °FPassing clouds.8 mph46%29.95 "HgN/A
7:30 am61 °FSunny.1 mph59%29.95 "Hg10 mi
7:00 am57 °FClear.No wind67%29.95 "Hg4 mi
6:30 am54 °FClear.1 mph88%29.95 "Hg4 mi
6:00 am52 °FSunny.3 mph88%29.95 "Hg10 mi
5:30 am48 °FSunny.1 mph87%29.92 "Hg10 mi
5:00 am45 °FSunny.3 mph93%29.95 "Hg10 mi
Weather by CustomWeather, © 2021

See weather overview